Time;durP1;ratioP1;P1;durP2;ratioP2;P2;SDS_P1;SDS_P2;PMS_P1;PMS_P2;Temp;Humidity;BMP_temperature;BMP_pressure;BME280_temperature;BME280_humidity;BME280_pressure;Samples;Min_cycle;Max_cycle;Signal;HPM_P1;HPM_P2
2022/11/03 00:01:09;;;;;;;13.07;2.83;;;;;;;11.23;81.69;101441.75;4985863;28;20378;-71
2022/11/03 00:03:35;;;;;;;30.53;4.07;;;;;;;11.16;82.11;101443.53;4988827;28;20037;-72
2022/11/03 00:06:06;;;;;;;20.20;3.30;;;;;;;11.20;81.80;101444.84;4989751;28;20092;-71
2022/11/03 00:08:39;;;;;;;14.43;3.00;;;;;;;11.15;81.94;101438.25;4962286;28;20026;-71
2022/11/03 00:11:07;;;;;;;13.52;2.83;;;;;;;11.05;82.35;101440.41;4989308;28;20050;-71
2022/11/03 00:13:33;;;;;;;19.27;3.58;;;;;;;11.08;82.21;101442.75;4983510;28;20481;-71
2022/11/03 00:15:58;;;;;;;25.10;4.20;;;;;;;11.17;81.74;101420.56;4987972;28;20026;-72
2022/11/03 00:18:24;;;;;;;15.37;3.23;;;;;;;11.10;81.64;101430.56;4991347;28;20040;-71
2022/11/03 00:21:06;;;;;;;17.13;3.30;;;;;;;11.12;82.04;101430.38;4997797;28;20030;-72
2022/11/03 00:23:34;;;;;;;21.92;3.70;;;;;;;11.17;81.51;101414.22;4988548;28;20421;-72
2022/11/03 00:26:04;;;;;;;13.02;2.83;;;;;;;11.13;81.99;101415.63;4988055;28;20037;-71
2022/11/03 00:28:33;;;;;;;19.02;3.83;;;;;;;11.16;81.44;101421.59;4990467;28;20054;-71
2022/11/03 00:31:01;;;;;;;19.35;2.90;;;;;;;11.17;81.59;101415.09;4988994;28;20046;-71
2022/11/03 00:33:30;;;;;;;20.67;3.03;;;;;;;11.14;81.81;101407.22;4985584;28;20022;-71
2022/11/03 00:35:57;;;;;;;13.18;2.50;;;;;;;11.23;81.13;101413.47;4971002;28;20482;-71
2022/11/03 00:38:23;;;;;;;20.33;3.50;;;;;;;11.25;81.11;101401.28;4986302;28;20480;-71
2022/11/03 00:41:06;;;;;;;20.33;4.53;;;;;;;11.23;81.38;101406.09;4970195;28;20041;-72
2022/11/03 00:43:33;;;;;;;15.63;3.22;;;;;;;11.18;81.65;101411.31;4988223;28;20026;-72
2022/11/03 00:46:00;;;;;;;26.05;3.70;;;;;;;11.17;81.91;101411.47;4989908;28;20027;-72
2022/11/03 00:48:29;;;;;;;22.00;3.08;;;;;;;11.23;81.60;101395.13;4989290;28;20109;-72
2022/11/03 00:51:09;;;;;;;16.55;2.85;;;;;;;11.15;82.11;101402.59;4989422;28;20557;-71
2022/11/03 00:53:46;;;;;;;17.17;3.90;;;;;;;11.22;81.80;101400.81;4986301;28;20066;-71
2022/11/03 00:56:13;;;;;;;19.17;3.43;;;;;;;11.23;81.66;101397.88;4970291;28;20819;-71
2022/11/03 00:58:38;;;;;;;;;;;;;;;11.20;81.55;101386.44;4987748;28;20033;-70
2022/11/03 01:01:15;;;;;;;17.05;2.80;;;;;;;11.25;81.63;101386.69;4989355;28;19917;-70
2022/11/03 01:06:48;;;;;;;;;;;;;;;11.15;81.84;101378.75;4988938;28;20066;-71
2022/11/03 01:09:11;;;;;;;20.70;4.15;;;;;;;11.22;81.56;101373.38;4980831;28;20033;-70
2022/11/03 01:11:42;;;;;;;24.30;2.83;;;;;;;11.21;82.26;101363.47;4988521;28;20474;-71
2022/11/03 01:14:13;;;;;;;13.73;2.67;;;;;;;11.19;82.17;101354.56;4988431;28;20034;-71
2022/11/03 01:16:38;;;;;;;16.90;2.80;;;;;;;11.16;82.83;101357.69;4989506;28;20027;-71
2022/11/03 01:19:04;;;;;;;14.10;3.70;;;;;;;11.17;82.35;101351.16;4989685;28;20076;-71
2022/11/03 01:21:30;;;;;;;18.23;3.28;;;;;;;11.15;82.69;101353.25;4989383;28;20030;-71
2022/11/03 01:23:55;;;;;;;14.90;2.70;;;;;;;11.16;83.11;101346.72;4979487;28;20022;-71
2022/11/03 01:26:21;;;;;;;11.30;2.87;;;;;;;11.09;83.65;101343.88;4991959;28;20084;-71
2022/11/03 01:28:46;;;;;;;26.52;4.05;;;;;;;11.05;83.61;101352.69;4973577;28;20091;-71
2022/11/03 01:31:19;;;;;;;12.57;2.73;;;;;;;11.02;83.93;101347.56;4991441;28;20065;-71
2022/11/03 01:33:45;;;;;;;16.85;3.75;;;;;;;11.06;83.93;101346.97;4992611;28;20082;-71
2022/11/03 01:36:12;;;;;;;19.35;2.38;;;;;;;10.97;84.46;101330.81;4976213;28;20338;-71
2022/11/03 01:38:37;;;;;;;23.77;3.80;;;;;;;11.12;83.89;101334.41;4991543;28;20026;-71
2022/11/03 01:41:06;;;;;;;18.53;3.50;;;;;;;11.13;84.37;101330.63;4991122;28;20080;-71
2022/11/03 01:43:32;;;;;;;10.10;2.90;;;;;;;11.12;84.29;101334.41;4993731;28;20524;-72
2022/11/03 01:46:17;;;;;;;11.13;2.90;;;;;;;11.06;84.52;101319.56;4976049;28;20481;-71
2022/11/03 01:48:58;;;;;;;20.02;2.95;;;;;;;11.06;84.56;101319.56;4990523;28;20088;-71
2022/11/03 01:51:27;;;;;;;19.40;3.95;;;;;;;11.01;85.15;101321.19;4992545;28;20478;-71
2022/11/03 01:53:56;;;;;;;17.58;2.78;;;;;;;11.07;85.03;101320.44;4991361;28;20066;-71
2022/11/03 01:56:22;;;;;;;12.48;3.83;;;;;;;10.94;85.56;101312.03;4992584;28;20121;-71
2022/11/03 01:58:50;;;;;;;17.80;3.13;;;;;;;10.94;85.69;101307.38;4990298;28;20084;-71
2022/11/03 02:01:15;;;;;;;15.57;2.95;;;;;;;10.96;85.43;101302.56;4992653;28;20041;-71
2022/11/03 02:03:47;;;;;;;13.77;3.07;;;;;;;11.01;85.26;101299.25;4989878;28;20030;-71
2022/11/03 02:06:13;;;;;;;16.95;3.28;;;;;;;11.00;85.88;101303.03;4974940;28;20050;-71
2022/11/03 02:08:53;;;;;;;15.02;2.90;;;;;;;11.07;85.38;101293.00;4990763;28;20410;-70
2022/11/03 02:14:02;;;;;;;14.27;2.78;;;;;;;11.07;86.01;101287.53;4986107;28;20034;-71
2022/11/03 02:16:31;;;;;;;17.73;3.30;;;;;;;11.01;85.70;101280.06;4991585;28;20034;-71
2022/11/03 02:18:59;;;;;;;23.70;3.25;;;;;;;10.96;86.49;101279.78;4989182;28;20034;-72
2022/11/03 02:21:47;;;;;;;16.77;2.80;;;;;;;10.98;86.33;101270.34;4979373;28;20466;-71
2022/11/03 02:24:30;;;;;;;20.05;3.55;;;;;;;11.07;86.06;101271.09;4992096;28;20073;-71
2022/11/03 02:26:55;;;;;;;14.90;2.55;;;;;;;10.96;86.34;101269.69;4991918;28;20030;-71
2022/11/03 02:29:21;;;;;;;18.10;3.90;;;;;;;11.03;86.54;101261.53;4991343;28;20030;-71
2022/11/03 02:31:51;;;;;;;11.77;2.50;;;;;;;11.08;86.63;101262.69;4976092;28;20064;-71
2022/11/03 02:34:36;;;;;;;17.85;4.70;;;;;;;11.13;86.43;101259.34;5011940;28;20030;-71
2022/11/03 02:37:08;;;;;;;19.30;3.08;;;;;;;11.06;86.92;101252.94;4981445;28;20057;-71
2022/11/03 02:39:40;;;;;;;21.17;2.90;;;;;;;11.03;86.83;101237.72;4992842;28;20024;-72
2022/11/03 02:42:07;;;;;;;21.67;3.53;;;;;;;11.09;87.11;101231.47;4992060;28;20034;-71
2022/11/03 02:44:34;;;;;;;13.60;2.22;;;;;;;11.12;86.98;101235.72;4992713;28;20559;-71
2022/11/03 02:47:03;;;;;;;15.93;2.35;;;;;;;11.19;86.62;101226.53;4973812;28;20034;-71
2022/11/03 02:49:28;;;;;;;17.33;2.88;;;;;;;11.21;86.65;101226.34;4971826;28;20481;-71
2022/11/03 02:52:04;;;;;;;22.93;3.40;;;;;;;11.21;86.82;101212.66;4992636;28;20092;-72
2022/11/03 02:54:42;;;;;;;13.13;2.83;;;;;;;11.15;87.08;101210.69;4991708;28;20363;-70
2022/11/03 02:57:14;;;;;;;19.33;3.35;;;;;;;11.16;87.16;101204.16;4989882;28;20113;-70
2022/11/03 02:59:55;;;;;;;15.57;3.05;;;;;;;11.18;87.17;101202.91;4987279;28;20061;-70
2022/11/03 03:02:31;;;;;;;15.80;3.13;;;;;;;11.23;86.88;101199.59;4990485;28;20038;-70
2022/11/03 03:05:00;;;;;;;17.75;3.00;;;;;;;11.14;87.45;101195.25;4992418;28;20437;-70
2022/11/03 03:07:31;;;;;;;11.02;2.67;;;;;;;11.18;87.34;101189.19;4991213;28;20026;-70
2022/11/03 03:10:07;;;;;;;13.80;2.50;;;;;;;11.22;87.09;101190.50;4972500;28;20026;-71
2022/11/03 03:12:36;;;;;;;16.15;2.83;;;;;;;11.23;87.50;101194.09;4992227;28;20034;-71
2022/11/03 03:15:04;;;;;;;20.23;3.35;;;;;;;11.27;87.45;101188.03;4989829;28;20417;-71
2022/11/03 03:17:40;;;;;;;16.52;2.83;;;;;;;11.19;87.64;101181.81;4990498;28;20054;-71
2022/11/03 03:20:18;;;;;;;13.23;3.00;;;;;;;11.10;88.06;101180.25;4990575;28;20026;-70
2022/11/03 03:23:01;;;;;;;16.83;3.63;;;;;;;11.10;88.16;101178.34;4991485;28;20030;-70
2022/11/03 03:25:33;;;;;;;13.15;2.78;;;;;;;11.13;87.90;101177.97;4989328;28;20121;-70
2022/11/03 03:28:05;;;;;;;11.57;2.90;;;;;;;11.19;88.27;101177.19;4990149;28;20109;-71
2022/11/03 03:30:32;;;;;;;10.90;2.60;;;;;;;11.14;88.58;101165.94;4990908;28;20397;-70
2022/11/03 03:33:00;;;;;;;16.00;3.58;;;;;;;11.16;88.55;101168.50;4991153;28;20518;-71
2022/11/03 03:35:32;;;;;;;14.20;3.53;;;;;;;11.23;88.55;101163.94;4989871;28;20030;-70
2022/11/03 03:38:02;;;;;;;13.48;3.05;;;;;;;11.26;88.53;101158.06;4991126;28;20042;-70
2022/11/03 03:40:33;;;;;;;20.15;3.38;;;;;;;11.23;88.70;101150.22;4990490;28;20097;-71
2022/11/03 03:43:01;;;;;;;13.50;3.13;;;;;;;11.32;88.27;101160.03;4990580;28;20073;-71
2022/11/03 03:45:29;;;;;;;13.57;3.55;;;;;;;11.26;88.78;101158.06;4991063;28;20501;-71
2022/11/03 03:47:54;;;;;;;17.98;2.58;;;;;;;11.21;88.67;101158.63;4992798;28;20034;-71
2022/11/03 03:50:21;;;;;;;14.50;3.77;;;;;;;11.31;87.98;101153.69;4990198;28;20092;-71
2022/11/03 03:52:47;;;;;;;22.35;3.70;;;;;;;11.30;88.64;101151.13;4990419;28;20117;-71
2022/11/03 03:55:20;;;;;;;17.45;2.83;;;;;;;11.25;88.67;101151.72;4989653;28;20026;-70
2022/11/03 03:57:45;;;;;;;18.50;3.15;;;;;;;11.24;88.90;101143.69;4990024;28;20041;-71
2022/11/03 04:00:12;;;;;;;29.93;3.67;;;;;;;11.20;88.96;101139.66;4988239;28;20030;-71
2022/11/03 04:02:38;;;;;;;13.07;3.78;;;;;;;11.23;88.81;101142.84;4990981;28;20034;-71
2022/11/03 04:05:04;;;;;;;17.00;2.70;;;;;;;11.19;89.13;101137.94;4989125;28;20548;-71
2022/11/03 04:07:47;;;;;;;26.30;2.90;;;;;;;11.14;89.25;101140.41;4990452;28;20066;-71
2022/11/03 04:10:17;;;;;;;18.95;3.05;;;;;;;11.07;89.61;101142.22;4989318;28;20045;-71
2022/11/03 04:23:39;;;;;;;17.08;2.83;;;;;;;11.12;90.15;101124.19;4989471;28;20369;-70
2022/11/03 04:26:15;;;;;;;23.23;3.33;;;;;;;11.17;90.23;101120.84;4972872;28;20034;-71
2022/11/03 04:28:41;;;;;;;12.98;2.85;;;;;;;11.24;90.41;101119.00;4990481;28;20113;-71
2022/11/03 04:31:14;;;;;;;13.45;2.75;;;;;;;11.18;90.18;101108.81;4990027;28;20042;-71
2022/11/03 04:33:40;;;;;;;11.20;3.25;;;;;;;11.19;90.34;101116.00;4975345;28;20112;-71
2022/11/03 04:36:24;;;;;;;11.17;3.47;;;;;;;11.26;90.35;101097.75;4989499;28;20121;-70
2022/11/03 04:38:51;;;;;;;14.32;2.55;;;;;;;11.26;90.31;101103.22;4977042;28;20048;-71
2022/11/03 04:41:27;;;;;;;15.43;2.85;;;;;;;11.29;90.17;101094.59;4989896;28;20090;-70
2022/11/03 04:43:52;;;;;;;12.00;3.38;;;;;;;11.26;90.25;101095.00;4989949;28;20081;-71
2022/11/03 04:46:28;;;;;;;21.73;3.20;;;;;;;11.27;90.58;101097.53;4990055;28;20042;-71
2022/11/03 04:48:57;;;;;;;10.52;2.80;;;;;;;11.28;90.63;101091.03;4989140;28;20045;-71
2022/11/03 04:51:25;;;;;;;14.70;2.78;;;;;;;11.41;89.69;101088.41;4988948;28;20061;-70
2022/11/03 04:54:00;;;;;;;18.23;4.70;;;;;;;11.40;90.10;101086.69;4989410;28;20545;-70
2022/11/03 04:56:25;;;;;;;16.88;3.75;;;;;;;11.37;90.25;101078.03;4989691;28;20469;-70
2022/11/03 04:58:52;;;;;;;16.67;2.83;;;;;;;11.34;90.42;101076.53;4990024;28;20034;-70
2022/11/03 05:01:22;;;;;;;16.35;2.90;;;;;;;11.49;90.28;101090.16;4988369;28;20026;-71
2022/11/03 05:03:51;;;;;;;11.77;3.00;;;;;;;11.45;90.64;101073.25;4988877;28;20034;-70
2022/11/03 05:06:21;;;;;;;14.48;2.72;;;;;;;11.53;90.28;101070.34;4989029;28;20031;-71
2022/11/03 05:08:49;;;;;;;13.70;3.42;;;;;;;11.51;90.68;101056.00;4987712;28;20117;-70
2022/11/03 05:11:20;;;;;;;21.58;3.13;;;;;;;11.58;90.51;101056.06;4988556;28;20030;-71
2022/11/03 05:13:46;;;;;;;20.90;3.25;;;;;;;11.56;90.44;101052.66;4991133;28;20022;-71
2022/11/03 05:16:12;;;;;;;22.73;3.00;;;;;;;11.64;90.49;101045.16;4989039;28;20093;-71
2022/11/03 05:18:41;;;;;;;13.85;2.83;;;;;;;11.65;90.46;101043.25;4987587;28;20022;-71
2022/11/03 05:21:21;;;;;;;13.35;3.20;;;;;;;11.62;90.57;101044.50;4989929;28;20121;-72
2022/11/03 05:23:51;;;;;;;10.55;2.40;;;;;;;11.67;90.23;101044.75;4976281;28;20038;-71
2022/11/03 05:26:29;;;;;;;14.07;2.58;;;;;;;11.73;90.50;101037.59;4989101;28;20026;-72
2022/11/03 05:29:08;;;;;;;13.98;2.63;;;;;;;11.69;90.24;101020.69;4987293;28;20496;-70
2022/11/03 05:31:35;;;;;;;10.13;2.78;;;;;;;11.64;90.53;101020.44;4990058;28;20065;-72
2022/11/03 05:34:09;;;;;;;11.95;2.58;;;;;;;11.71;90.59;101021.38;4988223;28;20448;-72
2022/11/03 05:36:34;;;;;;;17.73;3.13;;;;;;;11.69;90.45;101022.63;4989983;28;20093;-70
2022/11/03 05:39:18;;;;;;;12.37;2.63;;;;;;;11.69;90.92;101020.69;4987819;28;20026;-71
2022/11/03 05:41:44;;;;;;;13.70;3.00;;;;;;;11.66;91.23;101015.63;4987981;28;20507;-72
2022/11/03 05:44:27;;;;;;;6.97;2.50;;;;;;;11.72;91.07;101012.09;4967671;28;20027;-71
2022/11/03 05:46:52;;;;;;;16.85;2.80;;;;;;;11.71;90.84;101007.66;4986732;28;20188;-71
2022/11/03 05:49:18;;;;;;;17.23;2.77;;;;;;;11.66;90.77;101004.66;4987613;28;20109;-70
2022/11/03 05:51:44;;;;;;;12.77;2.60;;;;;;;11.53;91.34;100992.72;4982741;28;20113;-71
2022/11/03 05:54:19;;;;;;;11.05;2.88;;;;;;;11.56;91.83;100992.28;4987518;28;20048;-71
2022/11/03 05:56:46;;;;;;;10.38;3.10;;;;;;;11.59;91.78;100986.44;4988622;28;20039;-71
2022/11/03 05:59:13;;;;;;;12.85;2.58;;;;;;;11.61;91.71;100996.19;4985209;28;20423;-71
2022/11/03 06:01:39;;;;;;;;;;;;;;;11.67;91.56;100991.75;4993625;28;20140;-72
2022/11/03 06:04:36;;;;;;;12.38;3.00;;;;;;;11.62;91.55;100988.78;4988572;28;19917;-71
2022/11/03 06:07:23;;;;;;;15.23;3.55;;;;;;;11.56;92.15;100992.28;4980785;28;20038;-72
2022/11/03 06:09:48;;;;;;;27.75;3.17;;;;;;;11.54;92.36;100991.66;4979612;28;20046;-71
2022/11/03 06:12:19;;;;;;;23.83;4.67;;;;;;;11.63;91.92;100980.34;4988763;28;20096;-71
2022/11/03 06:14:44;;;;;;;17.33;2.83;;;;;;;11.60;91.56;100978.03;4991385;28;20121;-71
2022/11/03 06:17:24;;;;;;;18.27;3.13;;;;;;;11.61;92.16;100978.84;4992634;28;20121;-71
2022/11/03 06:19:52;;;;;;;13.50;2.55;;;;;;;11.59;91.82;100976.31;4991728;28;20045;-71
2022/11/03 06:22:25;;;;;;;21.77;4.13;;;;;;;11.65;91.64;100967.28;4991785;28;20041;-71
2022/11/03 06:24:54;;;;;;;10.93;2.90;;;;;;;11.71;91.55;100963.75;4982389;28;20505;-71
2022/11/03 06:27:22;;;;;;;20.63;3.33;;;;;;;11.69;91.34;100965.00;4986735;28;20034;-70
2022/11/03 06:29:50;;;;;;;18.42;2.97;;;;;;;11.63;92.03;100960.31;4970251;28;20417;-71
2022/11/03 06:32:16;;;;;;;19.83;3.20;;;;;;;11.65;92.00;100952.72;4990564;28;20512;-73
2022/11/03 06:34:45;;;;;;;21.43;3.47;;;;;;;11.68;92.22;100952.31;4991805;28;20042;-71
2022/11/03 06:37:22;;;;;;;21.13;4.25;;;;;;;11.73;91.80;100953.41;4991807;28;20401;-71
2022/11/03 06:39:48;;;;;;;12.02;2.85;;;;;;;11.67;92.59;100959.69;4992184;28;20495;-71
2022/11/03 06:42:15;;;;;;;12.23;2.67;;;;;;;11.67;92.35;100961.59;4989224;28;20120;-71
2022/11/03 06:44:46;;;;;;;13.05;2.88;;;;;;;11.65;92.59;100953.56;4989368;28;20129;-71
2022/11/03 06:47:21;;;;;;;12.48;3.35;;;;;;;11.64;92.54;100951.03;4991024;28;20111;-71
2022/11/03 06:49:47;;;;;;;14.18;3.00;;;;;;;11.68;92.50;100957.81;4992508;28;20113;-71
2022/11/03 06:52:22;;;;;;;11.53;3.43;;;;;;;11.82;92.20;100946.72;4991372;28;20544;-71
2022/11/03 06:54:52;;;;;;;8.80;2.92;;;;;;;11.76;92.49;100952.16;4972225;28;20023;-71
2022/11/03 06:57:18;;;;;;;18.65;3.05;;;;;;;11.78;92.63;100955.53;4990805;28;20363;-71
2022/11/03 06:59:43;;;;;;;10.97;3.27;;;;;;;11.79;92.27;100943.53;4989724;28;20033;-71
2022/11/03 07:02:33;;;;;;;15.80;3.10;;;;;;;11.74;92.39;100946.84;4991619;28;20037;-71
2022/11/03 07:04:58;;;;;;;17.55;3.05;;;;;;;11.83;91.94;100950.28;4989026;28;20038;-69
2022/11/03 07:07:24;;;;;;;19.83;2.67;;;;;;;11.80;92.60;100950.69;4992045;28;20081;-69
2022/11/03 07:09:49;;;;;;;17.05;4.07;;;;;;;11.81;92.55;100941.41;4989258;28;20255;-70
2022/11/03 07:12:17;;;;;;;16.70;3.40;;;;;;;11.75;92.78;100942.22;4989210;28;20037;-69
2022/11/03 07:14:42;;;;;;;15.48;2.80;;;;;;;11.77;92.97;100945.59;4990594;28;20078;-70
2022/11/03 07:17:20;;;;;;;11.20;3.17;;;;;;;11.83;92.60;100945.66;4991442;28;20390;-70
2022/11/03 07:19:46;;;;;;;14.40;3.22;;;;;;;11.80;93.06;100950.69;4991219;28;20030;-70
2022/11/03 07:22:22;;;;;;;13.63;2.97;;;;;;;11.86;92.88;100947.97;4991035;28;20037;-70
2022/11/03 07:24:54;;;;;;;10.68;3.78;;;;;;;11.88;92.37;100942.28;4989172;28;20088;-70
2022/11/03 07:27:26;;;;;;;19.60;3.65;;;;;;;11.86;93.00;100942.47;4990349;28;20034;-70
2022/11/03 07:29:57;;;;;;;11.38;3.65;;;;;;;11.91;92.42;100933.66;4988992;28;20030;-70
2022/11/03 07:32:27;;;;;;;15.95;3.38;;;;;;;11.95;92.29;100938.53;4986345;28;20121;-70
2022/11/03 07:35:15;;;;;;;17.08;4.35;;;;;;;11.96;92.46;100934.72;4988490;28;20027;-70
2022/11/03 07:37:40;;;;;;;;;;;;;;;11.97;92.82;100936.44;4986488;28;20330;-70
2022/11/03 07:40:12;;;;;;;14.43;3.90;;;;;;;12.00;92.56;100940.69;4988695;28;20040;-70
2022/11/03 07:42:38;;;;;;;14.93;2.97;;;;;;;12.06;92.27;100943.44;4986895;28;20104;-70
2022/11/03 07:45:34;;;;;;;15.27;2.97;;;;;;;12.08;91.96;100933.09;4984854;28;20058;-70
2022/11/03 07:48:22;;;;;;;15.60;3.30;;;;;;;12.10;92.50;100925.50;4983633;28;20478;-70
2022/11/03 07:50:50;;;;;;;12.98;3.00;;;;;;;12.14;91.97;100921.31;4990459;28;20042;-70
2022/11/03 07:53:36;;;;;;;10.82;3.65;;;;;;;12.13;92.77;100914.13;4987058;28;20030;-71
2022/11/03 07:56:12;;;;;;;20.67;4.85;;;;;;;12.26;92.12;100919.66;4966291;28;20034;-71
2022/11/03 07:58:39;;;;;;;18.02;3.45;;;;;;;12.20;92.12;100911.38;4989895;28;20022;-70
2022/11/03 08:01:26;;;;;;;18.00;3.30;;;;;;;12.26;92.29;100905.91;4989947;28;20026;-70
2022/11/03 08:03:54;;;;;;;16.45;2.90;;;;;;;12.29;92.29;100889.03;4961593;28;20031;-70
2022/11/03 08:06:19;;;;;;;12.73;2.70;;;;;;;12.33;92.13;100905.94;4985355;28;20033;-69
2022/11/03 08:08:44;;;;;;;13.37;2.93;;;;;;;12.39;91.24;100891.38;4972794;28;20034;-70
2022/11/03 08:11:10;;;;;;;10.43;2.88;;;;;;;12.45;91.66;100879.53;4990127;28;20065;-70
2022/11/03 08:13:35;;;;;;;13.60;2.67;;;;;;;12.42;90.97;100885.44;4990083;28;20029;-70
2022/11/03 08:16:00;;;;;;;18.23;3.63;;;;;;;12.45;91.13;100887.78;4988234;28;20031;-70
2022/11/03 08:18:25;;;;;;;19.87;4.03;;;;;;;12.50;90.69;100885.25;4986219;28;20065;-70
2022/11/03 08:20:51;;;;;;;13.52;3.53;;;;;;;12.50;90.71;100874.28;4983386;28;20109;-71
2022/11/03 08:23:16;;;;;;;11.90;3.73;;;;;;;12.50;90.36;100866.03;4985192;28;20042;-71
2022/11/03 08:25:42;;;;;;;15.53;3.40;;;;;;;12.48;90.52;100868.16;4990342;28;20097;-71
2022/11/03 08:28:08;;;;;;;10.70;2.97;;;;;;;12.51;91.29;100862.22;4989461;28;20856;-71
2022/11/03 08:30:33;;;;;;;17.17;3.50;;;;;;;12.54;90.34;100859.06;4991080;28;20412;-71
2022/11/03 08:32:59;;;;;;;20.23;3.30;;;;;;;12.53;90.64;100844.47;4989976;28;20045;-71
2022/11/03 08:35:24;;;;;;;13.53;3.57;;;;;;;12.63;90.31;100844.91;4987721;28;20031;-71
2022/11/03 08:37:50;;;;;;;15.90;3.27;;;;;;;12.59;90.60;100837.31;4985695;28;20089;-71
2022/11/03 08:40:15;;;;;;;14.33;3.13;;;;;;;12.66;89.64;100821.66;4992057;28;20125;-71
2022/11/03 08:42:40;;;;;;;14.70;3.63;;;;;;;12.69;89.61;100816.56;4987383;28;20027;-71
2022/11/03 08:45:06;;;;;;;16.37;3.50;;;;;;;12.73;89.38;100812.34;4987860;28;20117;-71
2022/11/03 08:47:31;;;;;;;13.17;3.23;;;;;;;12.79;89.60;100805.16;4985778;28;20394;-71
2022/11/03 08:49:57;;;;;;;19.40;4.47;;;;;;;12.82;89.35;100799.25;4983774;28;20038;-71
2022/11/03 08:52:22;;;;;;;22.07;4.13;;;;;;;12.82;89.21;100796.50;4983275;28;20038;-71
2022/11/03 08:54:47;;;;;;;18.73;3.53;;;;;;;12.93;89.00;100793.09;4989127;28;20079;-71
2022/11/03 08:57:12;;;;;;;14.03;4.73;;;;;;;12.89;88.68;100778.06;4985580;28;20038;-71
2022/11/03 08:59:38;;;;;;;14.30;2.97;;;;;;;12.89;89.00;100767.06;4988583;28;20026;-73
2022/11/03 09:02:03;;;;;;;12.40;3.23;;;;;;;12.94;88.26;100765.38;4984873;28;20030;-71
2022/11/03 09:04:29;;;;;;;13.83;3.53;;;;;;;12.96;88.08;100767.97;4990629;28;20210;-71
2022/11/03 09:06:54;;;;;;;12.40;2.70;;;;;;;13.00;88.03;100763.69;4986384;28;20038;-71
2022/11/03 09:09:20;;;;;;;17.57;2.93;;;;;;;13.01;87.98;100759.88;4987383;28;20026;-71
2022/11/03 09:11:46;;;;;;;12.87;2.90;;;;;;;13.10;87.27;100750.34;4986375;28;20118;-71
2022/11/03 09:14:11;;;;;;;16.70;3.33;;;;;;;13.11;87.24;100752.91;4986149;28;20092;-71
2022/11/03 09:16:36;;;;;;;18.70;3.50;;;;;;;13.19;85.68;100738.88;4984661;28;20034;-71
2022/11/03 09:19:02;;;;;;;13.93;3.13;;;;;;;13.24;85.41;100741.00;4986502;28;20035;-71
2022/11/03 09:21:27;;;;;;;9.97;3.10;;;;;;;13.21;85.72;100731.28;4984311;28;20574;-71
2022/11/03 09:23:52;;;;;;;9.97;2.43;;;;;;;13.25;86.05;100723.44;4978066;28;20122;-71
2022/11/03 09:26:19;;;;;;;20.30;3.00;;;;;;;13.24;85.12;100725.34;4977324;28;20117;-71
2022/11/03 09:28:44;;;;;;;8.93;3.20;;;;;;;13.27;85.00;100708.41;4979391;28;20716;-71
2022/11/03 09:31:10;;;;;;;12.50;2.60;;;;;;;13.26;85.03;100697.63;4982622;28;20039;-71
2022/11/03 09:33:35;;;;;;;13.20;2.77;;;;;;;13.27;84.86;100686.41;4979987;28;20035;-71
2022/11/03 09:36:01;;;;;;;14.13;3.17;;;;;;;13.28;85.17;100690.00;4984717;28;20067;-71
2022/11/03 09:38:26;;;;;;;10.80;2.73;;;;;;;13.21;85.02;100695.53;4980853;28;20050;-71
2022/11/03 09:40:52;;;;;;;11.93;2.83;;;;;;;13.26;84.62;100686.59;4986425;28;20088;-71
2022/11/03 09:43:18;;;;;;;13.23;2.67;;;;;;;13.19;85.04;100689.38;4988299;28;20027;-71
2022/11/03 09:45:43;;;;;;;14.85;3.10;;;;;;;13.19;85.46;100686.63;4989000;28;20030;-71
2022/11/03 09:48:11;;;;;;;18.87;3.10;;;;;;;13.23;84.91;100676.88;4988135;28;20049;-71
2022/11/03 09:50:37;;;;;;;18.48;3.15;;;;;;;13.21;84.84;100669.91;4991570;28;20120;-71
2022/11/03 09:53:02;;;;;;;17.70;3.07;;;;;;;13.24;84.88;100670.31;4988468;28;20105;-71
2022/11/03 09:55:28;;;;;;;14.70;3.17;;;;;;;13.33;83.98;100666.25;4990976;28;20046;-71
2022/11/03 09:57:57;;;;;;;12.70;2.80;;;;;;;13.33;84.38;100649.75;4991552;28;20080;-70
2022/11/03 10:00:25;;;;;;;15.48;3.05;;;;;;;13.42;83.91;100653.09;4989980;28;20053;-70
2022/11/03 10:02:50;;;;;;;12.32;2.63;;;;;;;13.43;83.55;100643.75;4990731;28;20026;-70
2022/11/03 10:05:21;;;;;;;9.90;2.93;;;;;;;13.43;83.16;100643.75;4989856;28;20042;-70
2022/11/03 10:07:47;;;;;;;14.80;2.88;;;;;;;13.46;83.27;100643.34;4991993;28;20048;-70
2022/11/03 10:10:18;;;;;;;7.30;3.00;;;;;;;13.47;83.15;100634.88;4990311;28;20397;-70
2022/11/03 10:12:46;;;;;;;17.92;3.67;;;;;;;13.44;83.13;100640.78;4990593;28;20030;-70
2022/11/03 10:15:15;;;;;;;13.90;2.92;;;;;;;13.54;82.49;100638.41;4987553;28;20026;-70
2022/11/03 10:17:41;;;;;;;12.27;3.05;;;;;;;13.53;82.38;100633.97;4990893;28;20045;-70
2022/11/03 10:20:15;;;;;;;17.25;3.05;;;;;;;13.52;82.25;100631.44;4973277;28;20096;-70
2022/11/03 10:22:43;;;;;;;11.48;3.65;;;;;;;13.53;82.00;100619.38;4990103;28;20053;-70
2022/11/03 10:25:36;;;;;;;11.35;2.97;;;;;;;13.46;82.23;100624.91;4989914;28;20026;-70
2022/11/03 10:28:16;;;;;;;14.38;3.35;;;;;;;13.50;82.16;100614.31;4987865;28;20169;-70
2022/11/03 10:30:57;;;;;;;17.20;2.97;;;;;;;13.51;81.92;100608.56;4986725;28;20060;-70
2022/11/03 10:33:35;;;;;;;8.60;2.55;;;;;;;13.58;81.90;100612.13;4985614;28;20785;-71
2022/11/03 10:36:21;;;;;;;12.48;2.08;;;;;;;13.59;81.73;100597.31;4987257;28;20030;-70
2022/11/03 10:38:47;;;;;;;8.40;2.72;;;;;;;13.63;81.99;100597.69;4990843;28;20113;-71
2022/11/03 10:41:24;;;;;;;11.87;2.90;;;;;;;13.72;81.25;100596.38;4969405;28;20041;-71
2022/11/03 10:44:10;;;;;;;7.57;2.20;;;;;;;13.83;81.26;100590.13;4972848;28;20034;-70
2022/11/03 10:46:36;;;;;;;10.02;2.20;;;;;;;13.89;79.78;100580.97;4982949;28;20402;-70
2022/11/03 10:49:01;;;;;;;15.27;2.58;;;;;;;13.84;80.24;100581.66;4989211;28;20034;-71
2022/11/03 10:51:28;;;;;;;10.37;2.63;;;;;;;13.85;80.16;100583.34;4989223;28;20026;-71
2022/11/03 10:53:54;;;;;;;11.07;2.92;;;;;;;13.91;80.15;100584.34;4988243;28;20038;-70
2022/11/03 10:56:19;;;;;;;6.78;2.50;;;;;;;13.95;79.88;100572.66;4988075;28;20042;-70
2022/11/03 10:58:45;;;;;;;7.70;2.03;;;;;;;14.02;79.91;100567.06;4987412;28;20466;-71
2022/11/03 11:01:10;;;;;;;9.10;2.67;;;;;;;13.94;80.13;100570.13;4982995;28;20053;-71
2022/11/03 11:03:41;;;;;;;10.20;2.83;;;;;;;13.99;79.24;100559.28;4987727;28;20031;-71
2022/11/03 11:06:23;;;;;;;14.32;2.55;;;;;;;14.01;78.77;100555.22;4989133;28;20046;-71
2022/11/03 11:08:52;;;;;;;13.38;2.90;;;;;;;14.03;79.17;100552.25;4988687;28;20034;-72
2022/11/03 11:11:20;;;;;;;9.85;2.40;;;;;;;14.10;78.46;100542.00;4988157;28;20030;-71
2022/11/03 11:14:24;;;;;;;6.88;2.40;;;;;;;14.09;78.49;100534.81;4985692;28;20117;-71
2022/11/03 11:16:57;;;;;;;11.57;2.75;;;;;;;14.16;78.71;100541.09;4970573;28;20497;-71
2022/11/03 11:19:24;;;;;;;9.05;2.80;;;;;;;14.19;78.80;100540.66;4987341;28;20027;-71
2022/11/03 11:21:52;;;;;;;10.05;2.35;;;;;;;14.17;78.55;100526.25;4983826;28;20026;-73
2022/11/03 11:24:42;;;;;;;9.63;2.50;;;;;;;14.24;78.09;100513.28;4988292;28;20035;-72
2022/11/03 11:27:30;;;;;;;10.25;2.38;;;;;;;14.22;78.09;100513.50;4986935;28;20110;-71
2022/11/03 11:29:59;;;;;;;7.97;2.42;;;;;;;14.21;78.37;100498.06;4987993;28;20490;-73
2022/11/03 11:32:43;;;;;;;6.65;2.17;;;;;;;14.29;77.99;100503.25;4985165;28;20399;-71
2022/11/03 11:35:10;;;;;;;7.47;2.30;;;;;;;14.47;77.55;100488.63;4985582;28;20371;-72
2022/11/03 11:37:37;;;;;;;10.85;3.60;;;;;;;14.60;77.31;100481.03;4987708;28;20034;-72
2022/11/03 11:40:33;;;;;;;13.95;2.78;;;;;;;14.73;76.38;100474.50;4970927;28;20129;-72
2022/11/03 11:43:01;;;;;;;10.57;2.60;;;;;;;14.87;75.21;100457.53;4987864;28;20034;-72
2022/11/03 11:46:04;;;;;;;9.75;3.03;;;;;;;14.85;75.42;100464.34;4986379;28;20389;-72
2022/11/03 11:48:30;;;;;;;7.45;2.30;;;;;;;14.85;75.57;100454.16;4986587;28;20038;-72
2022/11/03 11:50:59;;;;;;;6.20;2.63;;;;;;;14.82;75.81;100449.13;4984965;28;20098;-72